createdAt,value
2019-05-09T00:02:13.773Z,10.90
2019-05-09T00:04:44.069Z,10.90
2019-05-09T00:07:14.089Z,10.90
2019-05-09T00:09:44.107Z,10.90
2019-05-09T00:12:14.209Z,10.90
2019-05-09T00:14:43.657Z,10.90
2019-05-09T00:17:14.137Z,10.80
2019-05-09T00:19:43.998Z,10.90
2019-05-09T00:24:47.860Z,10.80
2019-05-09T00:27:17.000Z,10.80
2019-05-09T00:29:53.282Z,10.80
2019-05-09T00:32:40.111Z,10.80
2019-05-09T00:35:18.615Z,10.80
2019-05-09T00:38:04.285Z,10.80
2019-05-09T00:40:34.848Z,10.80
2019-05-09T00:43:04.216Z,10.80
2019-05-09T00:45:58.518Z,10.80
2019-05-09T00:48:33.847Z,10.80
2019-05-09T00:51:03.652Z,10.80
2019-05-09T00:53:33.902Z,10.80
2019-05-09T00:56:04.176Z,10.80
2019-05-09T00:58:33.713Z,10.70
2019-05-09T01:01:23.987Z,10.70
2019-05-09T01:03:56.497Z,10.70
2019-05-09T01:06:25.901Z,10.70
2019-05-09T01:08:55.307Z,10.60
2019-05-09T01:11:24.710Z,10.70
2019-05-09T01:13:54.575Z,10.70
2019-05-09T01:16:24.308Z,10.70
2019-05-09T01:18:54.316Z,10.60
2019-05-09T01:21:24.223Z,10.70
2019-05-09T01:23:57.441Z,10.70
2019-05-09T01:26:26.968Z,10.60
2019-05-09T01:28:56.048Z,10.60
2019-05-09T01:31:25.176Z,10.60
2019-05-09T01:34:04.108Z,10.60
2019-05-09T01:36:50.776Z,10.60
2019-05-09T01:39:20.252Z,10.60
2019-05-09T01:41:49.592Z,10.50
2019-05-09T01:44:18.641Z,10.50
2019-05-09T01:47:06.836Z,10.50
2019-05-09T01:49:35.889Z,10.50
2019-05-09T01:52:05.387Z,10.50
2019-05-09T01:54:36.272Z,10.40
2019-05-09T01:57:05.434Z,10.40
2019-05-09T01:59:34.598Z,10.40
2019-05-09T02:02:08.816Z,10.40
2019-05-09T02:04:34.977Z,10.40
2019-05-09T02:07:04.520Z,10.40
2019-05-09T02:09:34.501Z,10.30
2019-05-09T02:12:04.251Z,10.30
2019-05-09T02:14:43.516Z,10.30
2019-05-09T02:17:37.549Z,10.30
2019-05-09T02:20:07.904Z,10.30
2019-05-09T02:22:37.012Z,10.30
2019-05-09T02:25:08.039Z,10.30
2019-05-09T02:27:37.145Z,10.30
2019-05-09T02:30:08.106Z,10.20
2019-05-09T02:32:37.250Z,10.20
2019-05-09T02:35:07.389Z,10.20
2019-05-09T02:37:38.827Z,10.10
2019-05-09T02:40:09.775Z,10.10
2019-05-09T02:42:39.814Z,10.10
2019-05-09T02:45:09.838Z,10.00
2019-05-09T02:47:39.028Z,10.00
2019-05-09T02:50:09.461Z,10.00
2019-05-09T02:52:39.944Z,9.90
2019-05-09T02:55:10.811Z,9.90
2019-05-09T02:57:40.067Z,9.90
2019-05-09T03:00:21.709Z,9.90
2019-05-09T03:02:59.883Z,9.80
2019-05-09T03:05:29.894Z,9.70
2019-05-09T03:07:59.532Z,9.70
2019-05-09T03:10:29.482Z,9.60
2019-05-09T03:12:59.562Z,9.50
2019-05-09T03:15:29.329Z,9.50
2019-05-09T03:17:59.843Z,9.40
2019-05-09T03:20:52.871Z,9.40
2019-05-09T03:23:22.026Z,9.30
2019-05-09T03:25:51.143Z,9.30
2019-05-09T03:28:45.652Z,9.20
2019-05-09T03:31:19.723Z,9.20
2019-05-09T03:33:50.110Z,9.20
2019-05-09T03:36:19.761Z,9.20
2019-05-09T03:38:49.072Z,9.10
2019-05-09T03:41:18.252Z,9.10
2019-05-09T03:43:48.247Z,9.00
2019-05-09T03:46:28.024Z,9.00
2019-05-09T03:48:59.135Z,9.00
2019-05-09T03:51:28.312Z,9.00
2019-05-09T03:53:57.707Z,9.00
2019-05-09T03:56:32.198Z,9.00
2019-05-09T03:59:01.268Z,9.00
2019-05-09T04:01:34.409Z,9.00
2019-05-09T04:04:03.829Z,9.00
2019-05-09T04:06:34.170Z,9.00
2019-05-09T04:09:07.434Z,9.00
2019-05-09T04:11:38.074Z,9.10
2019-05-09T04:14:10.613Z,9.10
2019-05-09T04:16:39.619Z,9.10
2019-05-09T04:19:08.692Z,9.20
2019-05-09T04:21:41.128Z,9.20
2019-05-09T04:24:10.226Z,9.30
2019-05-09T04:27:04.702Z,9.30
2019-05-09T04:29:34.293Z,9.40
2019-05-09T04:32:18.856Z,9.40
2019-05-09T04:34:48.490Z,9.40
2019-05-09T04:37:19.116Z,9.40
2019-05-09T04:39:53.945Z,9.40
2019-05-09T04:42:21.697Z,9.40
2019-05-09T04:45:03.230Z,9.50
2019-05-09T04:47:33.887Z,9.50
2019-05-09T04:50:25.039Z,9.50
2019-05-09T04:52:54.882Z,9.60
2019-05-09T04:55:27.344Z,9.70
2019-05-09T04:57:57.190Z,9.70
2019-05-09T05:00:37.652Z,9.80
2019-05-09T05:03:07.921Z,9.90
2019-05-09T05:05:40.064Z,9.90
2019-05-09T05:08:08.571Z,10.00
2019-05-09T05:10:38.009Z,10.00
2019-05-09T05:13:07.788Z,10.10
2019-05-09T05:15:37.795Z,10.10
2019-05-09T05:18:08.552Z,10.10
2019-05-09T05:20:57.701Z,10.20
2019-05-09T05:23:40.373Z,10.20
2019-05-09T05:26:09.520Z,10.20
2019-05-09T05:28:38.828Z,10.30
2019-05-09T05:31:07.964Z,10.40
2019-05-09T05:33:48.998Z,10.50
2019-05-09T05:36:18.102Z,10.60
2019-05-09T05:38:48.053Z,10.60
2019-05-09T05:41:20.509Z,10.70
2019-05-09T05:43:50.282Z,10.80
2019-05-09T05:46:42.120Z,10.90
2019-05-09T05:49:11.954Z,10.90
2019-05-09T05:51:50.778Z,10.90
2019-05-09T05:54:23.356Z,11.10
2019-05-09T05:56:52.454Z,11.70
2019-05-09T05:59:22.048Z,12.20
2019-05-09T06:01:51.856Z,12.40
2019-05-09T06:04:21.194Z,12.90
2019-05-09T06:06:50.382Z,13.00
2019-05-09T06:09:19.552Z,13.20
2019-05-09T06:11:48.857Z,13.70
2019-05-09T06:14:18.706Z,13.80
2019-05-09T06:16:48.842Z,14.20
2019-05-09T06:19:18.278Z,14.40
2019-05-09T06:21:49.250Z,14.90
2019-05-09T06:24:18.807Z,15.00
2019-05-09T06:26:49.669Z,15.00
2019-05-09T06:29:23.753Z,15.30
2019-05-09T06:31:53.085Z,15.40
2019-05-09T06:34:22.150Z,15.60
2019-05-09T06:36:51.253Z,15.40
2019-05-09T06:39:24.867Z,15.70
2019-05-09T06:41:54.754Z,15.50
2019-05-09T06:44:37.321Z,15.30
2019-05-09T06:47:13.353Z,15.20
2019-05-09T06:49:45.429Z,15.40
2019-05-09T06:52:17.414Z,14.90
2019-05-09T06:54:48.628Z,14.80
2019-05-09T06:57:18.754Z,15.10
2019-05-09T06:59:48.785Z,15.00
2019-05-09T07:02:49.138Z,14.80
2019-05-09T07:05:30.285Z,14.90
2019-05-09T07:08:10.133Z,15.50
2019-05-09T07:10:39.505Z,15.50
2019-05-09T07:13:08.861Z,16.00
2019-05-09T07:15:37.960Z,16.50
2019-05-09T07:18:08.116Z,16.40
2019-05-09T07:20:37.982Z,16.40
2019-05-09T07:23:09.050Z,15.80
2019-05-09T07:25:44.892Z,15.80
2019-05-09T07:28:14.066Z,16.10
2019-05-09T07:31:11.755Z,16.00
2019-05-09T07:33:54.112Z,16.10
2019-05-09T07:36:27.717Z,16.20
2019-05-09T07:39:09.053Z,16.40
2019-05-09T07:41:38.504Z,15.90
2019-05-09T07:44:08.081Z,15.50
2019-05-09T07:46:47.853Z,15.60
2019-05-09T07:49:17.628Z,15.80
2019-05-09T07:51:47.814Z,15.70
2019-05-09T07:54:24.885Z,15.90
2019-05-09T07:56:48.601Z,16.30
2019-05-09T07:59:18.188Z,16.40
2019-05-09T08:01:48.771Z,16.40
2019-05-09T08:04:18.442Z,16.00
2019-05-09T08:06:48.634Z,15.60
2019-05-09T08:09:18.785Z,15.20
2019-05-09T08:11:48.497Z,14.90
2019-05-09T08:14:17.869Z,14.70
2019-05-09T08:16:47.631Z,14.80
2019-05-09T08:19:38.066Z,14.90
2019-05-09T08:22:08.072Z,15.50
2019-05-09T08:24:38.122Z,15.90
2019-05-09T08:27:08.538Z,15.50
2019-05-09T08:29:38.843Z,15.60
2019-05-09T08:32:08.037Z,15.40
2019-05-09T08:34:37.790Z,15.70
2019-05-09T08:37:08.119Z,16.10
2019-05-09T08:39:38.292Z,16.60
2019-05-09T08:42:08.436Z,16.80
2019-05-09T08:44:41.949Z,17.00
2019-05-09T08:47:13.012Z,16.80
2019-05-09T08:49:51.440Z,16.70
2019-05-09T08:52:20.926Z,16.20
2019-05-09T08:54:57.890Z,15.80
2019-05-09T08:57:28.885Z,15.60
2019-05-09T08:59:58.898Z,15.30
2019-05-09T09:02:28.516Z,15.40
2019-05-09T09:04:58.358Z,15.30
2019-05-09T09:07:29.784Z,15.50
2019-05-09T09:09:58.550Z,15.30
2019-05-09T09:12:34.094Z,15.50
2019-05-09T09:14:58.867Z,15.30
2019-05-09T09:17:29.564Z,15.10
2019-05-09T09:19:58.593Z,14.90
2019-05-09T09:25:02.509Z,15.20
2019-05-09T09:30:20.333Z,15.00
2019-05-09T09:32:39.016Z,15.20
2019-05-09T09:35:08.300Z,15.00
2019-05-09T09:37:47.570Z,15.00
2019-05-09T09:40:08.891Z,15.10
2019-05-09T09:42:39.709Z,15.00
2019-05-09T09:45:08.885Z,14.80
2019-05-09T09:47:40.084Z,14.90
2019-05-09T09:50:08.983Z,14.90
2019-05-09T09:52:39.911Z,15.30
2019-05-09T09:55:09.592Z,15.90
2019-05-09T09:57:38.668Z,16.90
2019-05-09T10:00:24.432Z,17.10
2019-05-09T10:02:53.516Z,16.90
2019-05-09T10:05:23.515Z,16.90
2019-05-09T10:07:58.051Z,16.90
2019-05-09T10:10:34.851Z,16.60
2019-05-09T10:13:04.949Z,16.60
2019-05-09T10:15:44.532Z,16.40
2019-05-09T10:18:52.292Z,16.20
2019-05-09T10:21:24.612Z,16.00
2019-05-09T10:23:54.203Z,16.00
2019-05-09T10:26:23.672Z,15.80
2019-05-09T10:28:52.818Z,15.80
2019-05-09T10:31:22.284Z,15.60
2019-05-09T10:33:51.792Z,15.60
2019-05-09T10:36:20.939Z,15.60
2019-05-09T10:38:50.019Z,15.60
2019-05-09T10:41:19.288Z,15.40
2019-05-09T10:44:13.457Z,15.40
2019-05-09T10:46:57.321Z,15.60
2019-05-09T10:49:21.901Z,15.40
2019-05-09T10:51:50.911Z,15.30
2019-05-09T10:54:19.975Z,15.60
2019-05-09T10:56:49.092Z,15.60
2019-05-09T10:59:18.956Z,15.40
2019-05-09T11:01:50.588Z,15.20
2019-05-09T11:04:19.635Z,15.20
2019-05-09T11:06:48.631Z,15.10
2019-05-09T11:09:19.604Z,15.10
2019-05-09T11:11:48.892Z,15.10
2019-05-09T11:14:32.120Z,15.20
2019-05-09T11:19:24.021Z,15.70
2019-05-09T11:21:53.077Z,15.80
2019-05-09T11:24:37.038Z,15.90
2019-05-09T11:26:53.604Z,16.20
2019-05-09T11:29:22.928Z,16.40
2019-05-09T11:31:52.585Z,16.60
2019-05-09T11:34:21.672Z,16.60
2019-05-09T11:36:52.020Z,16.70
2019-05-09T11:39:35.750Z,16.70
2019-05-09T11:41:52.159Z,17.00
2019-05-09T11:44:21.249Z,16.90
2019-05-09T11:46:51.434Z,16.90
2019-05-09T11:49:21.230Z,16.80
2019-05-09T11:51:51.349Z,16.80
2019-05-09T11:54:21.205Z,17.00
2019-05-09T11:56:50.282Z,17.00
2019-05-09T11:59:19.284Z,17.10
2019-05-09T12:01:48.702Z,17.40
2019-05-09T12:04:18.818Z,17.10
2019-05-09T12:06:49.302Z,17.10
2019-05-09T12:09:18.833Z,17.40
2019-05-09T12:11:48.487Z,17.60
2019-05-09T12:14:18.230Z,17.60
2019-05-09T12:16:48.168Z,17.40
2019-05-09T12:19:18.107Z,17.70
2019-05-09T12:21:48.441Z,17.60
2019-05-09T12:24:18.647Z,17.50
2019-05-09T12:26:48.284Z,17.50
2019-05-09T12:29:19.590Z,17.50
2019-05-09T12:31:48.695Z,17.80
2019-05-09T12:34:19.462Z,18.20
2019-05-09T12:36:49.953Z,17.80
2019-05-09T12:39:19.721Z,17.50
2019-05-09T12:41:49.438Z,17.20
2019-05-09T12:44:18.959Z,17.20
2019-05-09T12:46:50.157Z,17.20
2019-05-09T12:49:19.618Z,16.80
2019-05-09T12:51:48.833Z,16.90
2019-05-09T12:54:18.961Z,17.00
2019-05-09T12:56:48.705Z,17.10
2019-05-09T12:59:18.879Z,17.20
2019-05-09T13:01:49.210Z,17.10
2019-05-09T13:04:18.760Z,16.80
2019-05-09T13:06:48.792Z,16.80
2019-05-09T13:09:18.232Z,16.80
2019-05-09T13:11:48.235Z,16.80
2019-05-09T13:17:01.183Z,16.70
2019-05-09T13:19:37.966Z,16.80
2019-05-09T13:22:08.147Z,16.60
2019-05-09T13:24:37.961Z,16.50
2019-05-09T13:27:07.860Z,16.40
2019-05-09T13:29:38.063Z,16.50
2019-05-09T13:32:08.877Z,16.60
2019-05-09T13:34:38.260Z,16.50
2019-05-09T13:37:09.105Z,16.50
2019-05-09T13:39:39.851Z,16.70
2019-05-09T13:42:09.235Z,16.70
2019-05-09T13:44:41.334Z,16.80
2019-05-09T13:47:10.891Z,16.90
2019-05-09T13:49:40.837Z,17.00
2019-05-09T13:52:10.404Z,17.00
2019-05-09T13:54:39.460Z,17.00
2019-05-09T13:57:09.919Z,16.90
2019-05-09T13:59:39.173Z,16.80
2019-05-09T14:02:09.745Z,16.90
2019-05-09T14:04:40.866Z,17.10
2019-05-09T14:07:09.937Z,17.30
2019-05-09T14:09:39.529Z,17.40
2019-05-09T14:12:09.443Z,17.60
2019-05-09T14:14:40.181Z,17.70
2019-05-09T14:17:13.686Z,17.60
2019-05-09T14:19:46.516Z,17.60
2019-05-09T14:22:12.600Z,17.70
2019-05-09T14:24:42.999Z,17.50
2019-05-09T14:27:11.978Z,17.50
2019-05-09T14:29:41.134Z,17.50
2019-05-09T14:32:10.274Z,17.50
2019-05-09T14:34:42.648Z,17.50
2019-05-09T14:37:10.485Z,17.50
2019-05-09T14:39:54.482Z,17.60
2019-05-09T14:42:10.656Z,17.50
2019-05-09T14:44:41.051Z,17.50
2019-05-09T14:47:11.515Z,17.40
2019-05-09T14:49:44.513Z,17.50
2019-05-09T14:52:11.616Z,17.30
2019-05-09T14:54:41.004Z,17.20
2019-05-09T14:57:10.808Z,17.10
2019-05-09T14:59:40.870Z,17.00
2019-05-09T15:02:11.232Z,17.00
2019-05-09T15:04:40.644Z,16.90
2019-05-09T15:07:09.734Z,17.00
2019-05-09T15:09:38.797Z,17.00
2019-05-09T15:12:08.129Z,17.10
2019-05-09T15:14:38.400Z,17.40
2019-05-09T15:17:08.958Z,17.70
2019-05-09T15:19:55.309Z,17.90
2019-05-09T15:22:11.279Z,17.90
2019-05-09T15:24:44.080Z,17.70
2019-05-09T15:27:13.148Z,17.90
2019-05-09T15:29:42.485Z,17.80
2019-05-09T15:32:12.302Z,17.80
2019-05-09T15:34:42.633Z,17.70
2019-05-09T15:37:12.434Z,17.60
2019-05-09T15:39:42.048Z,17.30
2019-05-09T15:42:14.988Z,17.20
2019-05-09T15:44:44.108Z,17.10
2019-05-09T15:47:21.425Z,17.50
2019-05-09T15:49:51.811Z,17.60
2019-05-09T15:52:20.889Z,17.60
2019-05-09T15:54:50.328Z,17.70
2019-05-09T15:57:22.796Z,17.70
2019-05-09T15:59:52.389Z,17.50
2019-05-09T16:02:21.489Z,17.10
2019-05-09T16:04:50.456Z,16.90
2019-05-09T16:07:21.824Z,16.90
2019-05-09T16:09:50.895Z,17.00
2019-05-09T16:12:20.049Z,17.10
2019-05-09T16:14:51.006Z,17.20
2019-05-09T16:17:20.480Z,17.20
2019-05-09T16:19:49.564Z,17.10
2019-05-09T16:22:19.106Z,17.00
2019-05-09T16:24:48.715Z,17.00
2019-05-09T16:27:17.973Z,16.90
2019-05-09T16:29:48.579Z,16.80
2019-05-09T16:32:18.723Z,16.70
2019-05-09T16:34:48.321Z,16.80
2019-05-09T16:37:18.411Z,16.80
2019-05-09T16:39:47.788Z,16.80
2019-05-09T16:42:17.216Z,16.70
2019-05-09T16:44:48.136Z,16.70
2019-05-09T16:47:21.929Z,16.50
2019-05-09T16:49:49.384Z,16.40
2019-05-09T16:52:19.190Z,16.40
2019-05-09T16:54:50.300Z,16.20
2019-05-09T16:57:19.747Z,16.30
2019-05-09T16:59:48.794Z,16.30
2019-05-09T17:02:24.528Z,16.20
2019-05-09T17:04:49.388Z,16.10
2019-05-09T17:07:19.136Z,16.00
2019-05-09T17:09:48.589Z,16.10
2019-05-09T17:12:18.662Z,16.00
2019-05-09T17:14:59.400Z,16.00
2019-05-09T17:17:27.823Z,16.00
2019-05-09T17:19:57.379Z,16.00
2019-05-09T17:22:47.367Z,16.00
2019-05-09T17:25:15.844Z,16.00
2019-05-09T17:27:44.892Z,16.00
2019-05-09T17:30:14.051Z,16.00
2019-05-09T17:32:43.360Z,16.00
2019-05-09T17:35:12.460Z,16.00
2019-05-09T17:37:41.511Z,16.00
2019-05-09T17:40:10.626Z,16.00
2019-05-09T17:42:39.695Z,16.00
2019-05-09T17:45:08.783Z,16.00
2019-05-09T17:47:38.425Z,16.10
2019-05-09T17:50:07.883Z,16.10
2019-05-09T17:52:41.816Z,16.20
2019-05-09T17:55:11.136Z,16.20
2019-05-09T17:57:40.243Z,16.10
2019-05-09T18:00:11.581Z,16.00
2019-05-09T18:02:40.659Z,16.00
2019-05-09T18:05:10.156Z,15.90
2019-05-09T18:07:40.492Z,15.80
2019-05-09T18:10:10.499Z,15.80
2019-05-09T18:12:41.005Z,15.70
2019-05-09T18:15:10.300Z,15.60
2019-05-09T18:17:39.740Z,15.60
2019-05-09T18:20:08.780Z,15.50
2019-05-09T18:22:38.024Z,15.60
2019-05-09T18:25:08.468Z,15.50
2019-05-09T18:27:37.922Z,15.50
2019-05-09T18:30:07.532Z,15.50
2019-05-09T18:32:47.455Z,15.40
2019-05-09T18:35:21.246Z,15.10
2019-05-09T18:37:51.008Z,14.80
2019-05-09T18:40:20.905Z,14.40
2019-05-09T18:42:53.644Z,14.10
2019-05-09T18:45:24.366Z,13.70
2019-05-09T18:47:53.393Z,13.50
2019-05-09T18:50:22.778Z,13.30
2019-05-09T18:52:51.832Z,13.00
2019-05-09T18:55:21.089Z,12.80
2019-05-09T18:57:51.416Z,12.80
2019-05-09T19:00:21.600Z,12.80
2019-05-09T19:02:51.321Z,12.60
2019-05-09T19:07:55.914Z,12.50
2019-05-09T19:10:25.797Z,12.40
2019-05-09T19:12:54.888Z,12.30
2019-05-09T19:15:30.476Z,12.20
2019-05-09T19:18:08.915Z,12.10
2019-05-09T19:20:56.568Z,12.10
2019-05-09T19:23:26.792Z,12.10
2019-05-09T19:25:58.448Z,12.10
2019-05-09T19:28:29.482Z,12.10
2019-05-09T19:30:58.617Z,12.10
2019-05-09T19:33:27.964Z,12.10
2019-05-09T19:35:57.336Z,12.10
2019-05-09T19:38:26.436Z,12.10
2019-05-09T19:40:55.476Z,12.20
2019-05-09T19:43:24.501Z,12.20
2019-05-09T19:45:53.539Z,12.20
2019-05-09T19:48:23.002Z,12.30
2019-05-09T19:50:51.952Z,12.30
2019-05-09T19:53:21.381Z,12.20
2019-05-09T19:55:50.783Z,12.10
2019-05-09T19:58:20.774Z,12.20
2019-05-09T20:00:49.864Z,12.10
2019-05-09T20:03:22.560Z,12.10
2019-05-09T20:05:51.855Z,12.10
2019-05-09T20:08:21.307Z,12.10
2019-05-09T20:11:27.981Z,12.10
2019-05-09T20:14:25.135Z,12.10
2019-05-09T20:16:55.914Z,12.20
2019-05-09T20:19:25.106Z,12.20
2019-05-09T20:21:55.088Z,12.10
2019-05-09T20:24:24.191Z,12.10
2019-05-09T20:26:53.296Z,12.00
2019-05-09T20:29:22.960Z,12.10
2019-05-09T20:34:26.648Z,12.10
2019-05-09T20:36:56.786Z,12.00
2019-05-09T20:39:26.975Z,12.00
2019-05-09T20:41:58.376Z,12.00
2019-05-09T20:44:27.981Z,12.00
2019-05-09T20:46:57.537Z,12.10
2019-05-09T20:49:27.608Z,12.00
2019-05-09T20:51:56.873Z,12.00
2019-05-09T20:54:26.467Z,12.10
2019-05-09T20:56:56.020Z,12.20
2019-05-09T20:59:28.597Z,12.20
2019-05-09T21:01:58.043Z,12.10
2019-05-09T21:04:27.393Z,12.20
2019-05-09T21:06:57.522Z,12.10
2019-05-09T21:09:26.928Z,12.10
2019-05-09T21:11:57.328Z,12.10
2019-05-09T21:14:26.560Z,12.10
2019-05-09T21:16:56.227Z,12.10
2019-05-09T21:19:26.207Z,12.10
2019-05-09T21:21:55.544Z,12.20
2019-05-09T21:24:24.831Z,12.10
2019-05-09T21:26:54.345Z,12.10
2019-05-09T21:29:24.225Z,12.10
2019-05-09T21:31:53.849Z,12.10
2019-05-09T21:34:24.758Z,12.10
2019-05-09T21:36:53.833Z,12.10
2019-05-09T21:39:23.851Z,12.10
2019-05-09T21:41:53.104Z,12.20
2019-05-09T21:44:22.904Z,12.10
2019-05-09T21:46:53.352Z,12.00
2019-05-09T21:49:22.500Z,12.10
2019-05-09T21:51:51.701Z,12.10
2019-05-09T21:54:20.791Z,12.00
2019-05-09T21:56:49.952Z,12.00
2019-05-09T21:59:19.153Z,12.10
2019-05-09T22:01:48.448Z,12.10
2019-05-09T22:04:19.021Z,12.10
2019-05-09T22:06:48.381Z,12.10
2019-05-09T22:09:18.666Z,12.10
2019-05-09T22:11:48.127Z,12.10
2019-05-09T22:14:17.584Z,12.10
2019-05-09T22:16:48.344Z,12.10
2019-05-09T22:19:17.495Z,12.00
2019-05-09T22:21:46.898Z,12.00
2019-05-09T22:24:16.252Z,12.00
2019-05-09T22:26:45.336Z,12.10
2019-05-09T22:29:14.804Z,12.10
2019-05-09T22:31:44.121Z,12.10
2019-05-09T22:34:13.912Z,12.10
2019-05-09T22:36:42.965Z,12.10
2019-05-09T22:39:12.520Z,12.10
2019-05-09T22:41:41.993Z,12.10
2019-05-09T22:44:11.647Z,12.10
2019-05-09T22:46:40.828Z,12.10
2019-05-09T22:49:09.886Z,12.10
2019-05-09T22:51:40.233Z,12.10
2019-05-09T22:54:12.689Z,12.10
2019-05-09T22:56:40.656Z,12.00
2019-05-09T22:59:09.734Z,12.00
2019-05-09T23:01:39.048Z,11.90
2019-05-09T23:04:08.245Z,11.90
2019-05-09T23:06:37.290Z,11.90
2019-05-09T23:09:07.639Z,11.80
2019-05-09T23:11:38.032Z,11.80
2019-05-09T23:14:07.592Z,11.80
2019-05-09T23:16:39.649Z,11.70
2019-05-09T23:19:08.753Z,11.70
2019-05-09T23:21:37.992Z,11.60
2019-05-09T23:24:09.048Z,11.60
2019-05-09T23:27:28.372Z,11.60
2019-05-09T23:29:57.468Z,11.50
2019-05-09T23:32:35.783Z,11.50
2019-05-09T23:35:05.088Z,11.40
2019-05-09T23:37:34.087Z,11.30
2019-05-09T23:40:03.242Z,11.30
2019-05-09T23:42:32.676Z,11.30
2019-05-09T23:45:02.887Z,11.20
2019-05-09T23:47:32.012Z,11.30
2019-05-09T23:50:01.145Z,11.30
2019-05-09T23:52:30.224Z,11.30
2019-05-09T23:58:10.308Z,11.20
